createdAt,value
2022-09-09T00:02:11.619Z,14.20
2022-09-09T00:04:46.366Z,14.20
2022-09-09T00:07:39.380Z,14.10
2022-09-09T00:10:13.902Z,14.20
2022-09-09T00:13:15.131Z,14.30
2022-09-09T00:16:13.463Z,14.30
2022-09-09T00:19:02.534Z,14.40
2022-09-09T00:21:48.512Z,14.50
2022-09-09T00:24:33.053Z,14.50
2022-09-09T00:27:16.195Z,14.50
2022-09-09T00:29:57.926Z,14.50
2022-09-09T00:32:31.907Z,14.70
2022-09-09T00:35:28.219Z,14.70
2022-09-09T00:38:11.605Z,14.70
2022-09-09T00:40:53.814Z,14.80
2022-09-09T00:43:31.024Z,14.90
2022-09-09T00:46:28.193Z,14.90
2022-09-09T00:49:29.239Z,14.90
2022-09-09T00:52:32.945Z,15.00
2022-09-09T00:55:33.271Z,15.00
2022-09-09T00:58:09.650Z,15.00
2022-09-09T01:00:46.130Z,15.00
2022-09-09T01:03:37.045Z,15.10
2022-09-09T01:06:43.790Z,15.10
2022-09-09T01:09:47.621Z,15.10
2022-09-09T01:12:44.599Z,15.00
2022-09-09T01:15:25.699Z,15.00
2022-09-09T01:18:03.335Z,14.90
2022-09-09T01:20:52.999Z,14.90
2022-09-09T01:23:43.278Z,14.90
2022-09-09T01:26:33.698Z,14.80
2022-09-09T01:29:10.775Z,14.80
2022-09-09T01:31:55.040Z,14.80
2022-09-09T01:34:32.330Z,14.80
2022-09-09T01:37:08.572Z,14.80
2022-09-09T01:39:43.533Z,14.80
2022-09-09T01:42:17.535Z,14.80
2022-09-09T01:44:49.178Z,14.90
2022-09-09T01:47:21.078Z,15.00
2022-09-09T01:49:52.822Z,15.00
2022-09-09T01:52:24.606Z,15.10
2022-09-09T01:54:56.684Z,15.00
2022-09-09T01:57:51.090Z,14.90
2022-09-09T02:00:22.980Z,14.80
2022-09-09T02:03:01.959Z,14.70
2022-09-09T02:05:52.724Z,14.60
2022-09-09T02:08:27.126Z,14.50
2022-09-09T02:11:31.361Z,14.30
2022-09-09T02:14:17.303Z,14.20
2022-09-09T02:16:53.417Z,14.10
2022-09-09T02:19:31.692Z,14.00
2022-09-09T02:22:04.517Z,14.00
2022-09-09T02:24:38.391Z,13.90
2022-09-09T02:27:11.644Z,13.80
2022-09-09T02:29:46.438Z,13.70
2022-09-09T02:32:24.761Z,13.70
2022-09-09T02:35:01.414Z,13.60
2022-09-09T02:37:37.513Z,13.60
2022-09-09T02:40:12.991Z,13.50
2022-09-09T02:42:47.092Z,13.50
2022-09-09T02:45:26.983Z,13.40
2022-09-09T02:48:27.462Z,13.40
2022-09-09T02:51:11.448Z,13.40
2022-09-09T02:53:55.924Z,13.30
2022-09-09T02:56:34.734Z,13.30
2022-09-09T02:59:06.986Z,13.30
2022-09-09T03:01:41.070Z,13.30
2022-09-09T03:04:12.826Z,13.30
2022-09-09T03:06:45.203Z,13.30
2022-09-09T03:09:16.906Z,13.30
2022-09-09T03:11:48.676Z,13.30
2022-09-09T03:14:22.213Z,13.30
2022-09-09T03:16:55.227Z,13.40
2022-09-09T03:19:26.999Z,13.40
2022-09-09T03:21:59.261Z,13.30
2022-09-09T03:24:31.312Z,13.30
2022-09-09T03:27:03.095Z,13.30
2022-09-09T03:29:35.246Z,13.30
2022-09-09T03:32:07.047Z,13.20
2022-09-09T03:34:41.630Z,13.20
2022-09-09T03:37:13.411Z,13.20
2022-09-09T03:39:45.771Z,13.20
2022-09-09T03:42:20.235Z,13.20
2022-09-09T03:44:52.307Z,13.20
2022-09-09T03:47:24.004Z,13.20
2022-09-09T03:49:55.785Z,13.20
2022-09-09T03:52:27.795Z,13.20
2022-09-09T03:54:59.507Z,13.20
2022-09-09T03:57:31.150Z,13.20
2022-09-09T04:00:07.603Z,13.20
2022-09-09T04:02:40.256Z,13.20
2022-09-09T04:05:12.329Z,13.20
2022-09-09T04:07:44.051Z,13.10
2022-09-09T04:10:16.771Z,13.10
2022-09-09T04:12:49.584Z,13.10
2022-09-09T04:15:22.191Z,13.00
2022-09-09T04:17:53.839Z,13.10
2022-09-09T04:20:25.567Z,13.10
2022-09-09T04:22:57.225Z,13.20
2022-09-09T04:25:29.170Z,13.30
2022-09-09T04:28:01.194Z,13.40
2022-09-09T04:30:32.931Z,13.40
2022-09-09T04:33:04.710Z,13.50
2022-09-09T04:35:37.111Z,13.50
2022-09-09T04:38:10.321Z,13.50
2022-09-09T04:40:48.530Z,13.60
2022-09-09T04:43:21.527Z,13.70
2022-09-09T04:45:53.609Z,13.70
2022-09-09T04:48:26.246Z,13.70
2022-09-09T04:51:04.850Z,13.70
2022-09-09T04:53:36.727Z,13.70
2022-09-09T04:56:16.675Z,13.60
2022-09-09T04:58:48.983Z,13.60
2022-09-09T05:01:22.988Z,13.60
2022-09-09T05:03:56.439Z,13.50
2022-09-09T05:06:28.140Z,13.40
2022-09-09T05:08:59.972Z,13.50
2022-09-09T05:11:35.032Z,13.50
2022-09-09T05:14:06.755Z,13.50
2022-09-09T05:16:38.608Z,13.60
2022-09-09T05:19:10.377Z,13.60
2022-09-09T05:21:42.607Z,13.70
2022-09-09T05:24:14.281Z,13.70
2022-09-09T05:26:46.010Z,13.80
2022-09-09T05:29:19.967Z,13.80
2022-09-09T05:31:51.736Z,14.00
2022-09-09T05:34:23.518Z,14.00
2022-09-09T05:36:55.330Z,14.20
2022-09-09T05:39:26.998Z,14.40
2022-09-09T05:41:58.659Z,14.50
2022-09-09T05:44:30.322Z,14.70
2022-09-09T05:47:02.083Z,14.80
2022-09-09T05:49:33.774Z,14.80
2022-09-09T05:52:05.407Z,14.90
2022-09-09T05:54:38.509Z,14.90
2022-09-09T05:57:10.239Z,14.90
2022-09-09T05:59:41.947Z,15.00
2022-09-09T06:02:14.441Z,15.00
2022-09-09T06:04:46.408Z,15.00
2022-09-09T06:07:18.574Z,15.00
2022-09-09T06:09:51.231Z,15.00
2022-09-09T06:12:22.972Z,15.00
2022-09-09T06:14:54.699Z,15.10
2022-09-09T06:17:26.367Z,15.10
2022-09-09T06:19:58.070Z,15.10
2022-09-09T06:22:29.825Z,15.20
2022-09-09T06:25:02.124Z,15.20
2022-09-09T06:27:33.807Z,15.20
2022-09-09T06:30:05.887Z,15.30
2022-09-09T06:32:38.812Z,15.40
2022-09-09T06:35:11.767Z,15.50
2022-09-09T06:37:46.446Z,15.70
2022-09-09T06:40:18.447Z,15.90
2022-09-09T06:42:50.155Z,15.90
2022-09-09T06:45:21.871Z,16.00
2022-09-09T06:47:56.123Z,16.00
2022-09-09T06:50:27.835Z,16.00
2022-09-09T06:52:59.484Z,16.10
2022-09-09T06:55:31.152Z,16.20
2022-09-09T06:58:03.553Z,16.30
2022-09-09T07:00:35.437Z,16.40
2022-09-09T07:03:07.146Z,16.50
2022-09-09T07:05:38.806Z,16.60
2022-09-09T07:08:11.472Z,16.70
2022-09-09T07:10:44.417Z,16.80
2022-09-09T07:13:16.574Z,17.00
2022-09-09T07:15:48.437Z,17.10
2022-09-09T07:18:21.457Z,17.20
2022-09-09T07:20:58.502Z,17.20
2022-09-09T07:23:35.552Z,17.20
2022-09-09T07:26:13.117Z,17.30
2022-09-09T07:28:46.322Z,17.30
2022-09-09T07:31:21.391Z,17.60
2022-09-09T07:33:53.328Z,17.70
2022-09-09T07:36:31.215Z,17.70
2022-09-09T07:39:08.071Z,17.80
2022-09-09T07:41:45.624Z,17.90
2022-09-09T07:44:22.221Z,18.10
2022-09-09T07:46:54.197Z,18.20
2022-09-09T07:49:30.986Z,18.10
2022-09-09T07:52:04.544Z,18.00
2022-09-09T07:54:36.460Z,18.00
2022-09-09T07:57:08.231Z,17.90
2022-09-09T07:59:39.920Z,17.70
2022-09-09T08:02:11.987Z,17.60
2022-09-09T08:04:43.669Z,17.50
2022-09-09T08:07:15.454Z,17.50
2022-09-09T08:09:47.595Z,17.50
2022-09-09T08:12:19.407Z,17.50
2022-09-09T08:14:52.446Z,17.70
2022-09-09T08:17:24.251Z,17.70
2022-09-09T08:19:55.904Z,17.80
2022-09-09T08:22:28.149Z,17.90
2022-09-09T08:24:59.831Z,18.10
2022-09-09T08:27:33.171Z,18.20
2022-09-09T08:30:05.538Z,18.30
2022-09-09T08:32:38.297Z,18.30
2022-09-09T08:35:11.583Z,18.40
2022-09-09T08:37:43.604Z,18.50
2022-09-09T08:40:23.596Z,18.60
2022-09-09T08:42:58.066Z,18.60
2022-09-09T08:45:36.485Z,18.60
2022-09-09T08:48:08.185Z,18.50
2022-09-09T08:50:42.114Z,18.50
2022-09-09T08:53:28.057Z,18.60
2022-09-09T08:56:04.468Z,19.00
2022-09-09T08:58:39.466Z,19.40
2022-09-09T09:01:23.748Z,19.90
2022-09-09T09:04:07.888Z,20.20
2022-09-09T09:06:51.706Z,20.40
2022-09-09T09:09:46.230Z,20.10
2022-09-09T09:12:22.599Z,19.70
2022-09-09T09:14:56.441Z,19.00
2022-09-09T09:17:32.346Z,18.10
2022-09-09T09:20:06.968Z,17.30
2022-09-09T09:22:51.715Z,16.80
2022-09-09T09:25:36.514Z,16.80
2022-09-09T09:28:18.867Z,17.70
2022-09-09T09:30:59.219Z,19.00
2022-09-09T09:34:00.251Z,20.10
2022-09-09T09:36:47.978Z,20.30
2022-09-09T09:42:24.126Z,19.50
2022-09-09T09:44:55.819Z,20.60
2022-09-09T09:47:27.974Z,21.70
2022-09-09T09:50:03.637Z,23.10
2022-09-09T09:52:37.668Z,24.20
2022-09-09T09:55:15.339Z,24.90
2022-09-09T09:57:47.142Z,24.80
2022-09-09T10:00:22.106Z,24.90
2022-09-09T10:02:54.248Z,24.50
2022-09-09T10:05:31.569Z,24.60
2022-09-09T10:08:13.014Z,25.50
2022-09-09T10:10:59.715Z,26.80
2022-09-09T10:13:56.570Z,27.50
2022-09-09T10:16:39.006Z,27.40
2022-09-09T10:19:16.034Z,26.40
2022-09-09T10:22:03.181Z,26.20
2022-09-09T10:25:07.147Z,26.60
2022-09-09T10:28:13.514Z,27.50
2022-09-09T10:30:54.182Z,27.80
2022-09-09T10:33:50.262Z,28.00
2022-09-09T10:36:29.383Z,27.90
2022-09-09T10:39:05.151Z,27.70
2022-09-09T10:41:52.385Z,26.90
2022-09-09T10:44:49.384Z,25.80
2022-09-09T10:47:36.898Z,25.20
2022-09-09T10:50:57.201Z,25.20
2022-09-09T10:53:42.320Z,25.00
2022-09-09T10:56:18.966Z,24.20
2022-09-09T10:58:54.688Z,23.40
2022-09-09T11:01:41.256Z,23.60
2022-09-09T11:04:26.742Z,23.70
2022-09-09T11:07:07.433Z,23.00
2022-09-09T11:09:49.451Z,22.50
2022-09-09T11:12:21.397Z,22.00
2022-09-09T11:15:02.572Z,21.40
2022-09-09T11:17:57.665Z,20.90
2022-09-09T11:20:29.372Z,20.30
2022-09-09T11:23:10.955Z,20.10
2022-09-09T11:25:53.433Z,19.80
2022-09-09T11:28:50.172Z,19.60
2022-09-09T11:31:37.938Z,19.50
2022-09-09T11:34:34.443Z,19.30
2022-09-09T11:37:24.763Z,19.30
2022-09-09T11:40:10.887Z,19.40
2022-09-09T11:42:43.099Z,19.40
2022-09-09T11:45:30.225Z,19.50
2022-09-09T11:48:03.095Z,19.40
2022-09-09T11:50:38.844Z,19.40
2022-09-09T11:53:13.883Z,19.40
2022-09-09T11:55:45.649Z,19.50
2022-09-09T11:58:19.383Z,19.50
2022-09-09T12:00:51.357Z,19.50
2022-09-09T12:03:47.224Z,19.90
2022-09-09T12:06:51.813Z,20.00
2022-09-09T12:09:26.301Z,20.00
2022-09-09T12:12:13.316Z,20.20
2022-09-09T12:15:02.156Z,20.00
2022-09-09T12:17:43.669Z,20.10
2022-09-09T12:20:24.668Z,20.10
2022-09-09T12:23:24.547Z,20.20
2022-09-09T12:26:24.443Z,20.20
2022-09-09T12:29:13.480Z,20.20
2022-09-09T12:31:53.620Z,20.20
2022-09-09T12:34:28.822Z,20.30
2022-09-09T12:37:29.131Z,20.10
2022-09-09T12:40:04.792Z,20.10
2022-09-09T12:42:41.646Z,20.30
2022-09-09T12:45:22.072Z,20.20
2022-09-09T12:48:16.488Z,20.40
2022-09-09T12:50:53.523Z,20.50
2022-09-09T12:53:35.223Z,20.30
2022-09-09T12:56:10.044Z,20.20
2022-09-09T12:58:48.624Z,20.10
2022-09-09T13:01:32.219Z,20.10
2022-09-09T13:04:04.165Z,20.20
2022-09-09T13:06:36.391Z,20.20
2022-09-09T13:09:11.043Z,20.10
2022-09-09T13:11:48.225Z,20.30
2022-09-09T13:14:40.523Z,20.60
2022-09-09T13:17:28.120Z,20.80
2022-09-09T13:19:59.848Z,20.80
2022-09-09T13:22:39.950Z,20.90
2022-09-09T13:25:12.447Z,20.80
2022-09-09T13:28:00.558Z,20.90
2022-09-09T13:30:42.002Z,20.80
2022-09-09T13:33:13.888Z,20.70
2022-09-09T13:35:55.259Z,20.50
2022-09-09T13:38:29.903Z,20.40
2022-09-09T13:41:05.407Z,20.60
2022-09-09T13:43:48.326Z,20.90
2022-09-09T13:46:43.827Z,20.90
2022-09-09T13:49:15.501Z,20.80
2022-09-09T13:51:49.964Z,20.70
2022-09-09T13:54:22.147Z,20.50
2022-09-09T13:56:54.834Z,20.50
2022-09-09T13:59:42.503Z,20.60
2022-09-09T14:02:19.309Z,20.70
2022-09-09T14:04:55.787Z,20.70
2022-09-09T14:07:28.064Z,20.60
2022-09-09T14:10:01.068Z,20.60
2022-09-09T14:12:32.775Z,20.70
2022-09-09T14:15:05.850Z,20.60
2022-09-09T14:17:37.520Z,20.60
2022-09-09T14:20:10.919Z,20.80
2022-09-09T14:22:43.009Z,20.90
2022-09-09T14:25:14.991Z,20.80
2022-09-09T14:27:47.064Z,20.60
2022-09-09T14:30:18.791Z,20.40
2022-09-09T14:32:50.484Z,20.30
2022-09-09T14:35:23.183Z,20.30
2022-09-09T14:37:56.040Z,20.20
2022-09-09T14:40:28.042Z,20.30
2022-09-09T14:43:00.187Z,20.40
2022-09-09T14:45:32.239Z,20.50
2022-09-09T14:48:04.627Z,20.50
2022-09-09T14:50:40.853Z,20.50
2022-09-09T14:53:13.614Z,20.50
2022-09-09T14:55:46.915Z,20.50
2022-09-09T14:58:18.575Z,20.40
2022-09-09T15:00:50.243Z,20.30
2022-09-09T15:03:24.084Z,20.20
2022-09-09T15:05:55.754Z,20.00
2022-09-09T15:08:27.631Z,20.00
2022-09-09T15:11:08.468Z,20.00
2022-09-09T15:13:42.375Z,20.10
2022-09-09T15:16:15.823Z,20.20
2022-09-09T15:18:51.389Z,20.20
2022-09-09T15:21:25.749Z,20.30
2022-09-09T15:23:58.282Z,20.30
2022-09-09T15:26:31.078Z,20.40
2022-09-09T15:29:02.866Z,20.40
2022-09-09T15:31:34.914Z,20.30
2022-09-09T15:34:08.441Z,20.20
2022-09-09T15:36:42.823Z,20.20
2022-09-09T15:39:17.265Z,20.10
2022-09-09T15:41:49.630Z,19.90
2022-09-09T15:44:21.340Z,19.70
2022-09-09T15:46:56.783Z,19.70
2022-09-09T15:49:28.435Z,19.50
2022-09-09T15:52:04.353Z,19.50
2022-09-09T15:54:40.106Z,19.40
2022-09-09T15:57:13.835Z,19.30
2022-09-09T15:59:46.142Z,19.30
2022-09-09T16:02:19.122Z,19.30
2022-09-09T16:04:50.884Z,19.20
2022-09-09T16:07:22.526Z,19.20
2022-09-09T16:09:54.947Z,19.20
2022-09-09T16:12:27.430Z,19.20
2022-09-09T16:15:00.091Z,19.20
2022-09-09T16:17:38.185Z,19.10
2022-09-09T16:20:10.259Z,19.20
2022-09-09T16:22:43.102Z,19.20
2022-09-09T16:25:15.531Z,19.10
2022-09-09T16:27:47.492Z,19.10
2022-09-09T16:30:19.143Z,19.00
2022-09-09T16:32:50.806Z,19.00
2022-09-09T16:35:23.091Z,19.00
2022-09-09T16:37:54.807Z,18.90
2022-09-09T16:40:26.989Z,18.70
2022-09-09T16:42:58.849Z,18.70
2022-09-09T16:45:31.056Z,18.70
2022-09-09T16:48:02.854Z,18.50
2022-09-09T16:50:34.534Z,18.50
2022-09-09T16:53:10.556Z,18.50
2022-09-09T16:55:43.411Z,18.40
2022-09-09T16:58:15.398Z,18.20
2022-09-09T17:00:48.641Z,18.20
2022-09-09T17:03:21.827Z,18.10
2022-09-09T17:05:53.493Z,18.00
2022-09-09T17:08:25.626Z,18.00
2022-09-09T17:10:58.543Z,17.80
2022-09-09T17:13:31.137Z,17.70
2022-09-09T17:16:05.707Z,17.60
2022-09-09T17:18:38.055Z,17.50
2022-09-09T17:21:14.026Z,17.50
2022-09-09T17:23:46.375Z,17.40
2022-09-09T17:26:20.339Z,17.30
2022-09-09T17:28:56.183Z,17.20
2022-09-09T17:31:31.091Z,17.10
2022-09-09T17:34:02.876Z,17.00
2022-09-09T17:36:35.738Z,16.90
2022-09-09T17:39:07.579Z,16.80
2022-09-09T17:41:40.795Z,16.60
2022-09-09T17:44:12.491Z,16.50
2022-09-09T17:46:46.229Z,16.40
2022-09-09T17:49:18.490Z,16.30
2022-09-09T17:51:50.174Z,16.20
2022-09-09T17:54:22.096Z,16.10
2022-09-09T17:56:53.967Z,16.10
2022-09-09T17:59:26.495Z,16.00
2022-09-09T18:01:58.294Z,16.00
2022-09-09T18:04:30.098Z,15.90
2022-09-09T18:07:02.099Z,15.90
2022-09-09T18:09:34.665Z,15.90
2022-09-09T18:12:07.664Z,15.90
2022-09-09T18:14:39.418Z,16.00
2022-09-09T18:17:11.426Z,16.00
2022-09-09T18:19:43.064Z,16.10
2022-09-09T18:22:14.793Z,16.00
2022-09-09T18:24:48.331Z,16.00
2022-09-09T18:27:20.379Z,16.00
2022-09-09T18:29:52.110Z,16.00
2022-09-09T18:32:23.967Z,16.00
2022-09-09T18:34:59.073Z,16.00
2022-09-09T18:37:34.020Z,16.00
2022-09-09T18:40:06.179Z,16.00
2022-09-09T18:42:37.903Z,16.00
2022-09-09T18:45:09.671Z,16.10
2022-09-09T18:47:42.447Z,16.20
2022-09-09T18:50:14.243Z,16.30
2022-09-09T18:52:46.920Z,16.30
2022-09-09T18:55:18.715Z,16.30
2022-09-09T18:57:50.717Z,16.30
2022-09-09T19:00:22.392Z,16.40
2022-09-09T19:02:54.127Z,16.40
2022-09-09T19:05:25.822Z,16.40
2022-09-09T19:07:57.483Z,16.40
2022-09-09T19:10:30.621Z,16.40
2022-09-09T19:13:02.453Z,16.40
2022-09-09T19:15:37.505Z,16.40
2022-09-09T19:18:09.466Z,16.30
2022-09-09T19:20:41.379Z,16.20
2022-09-09T19:23:13.018Z,16.20
2022-09-09T19:25:45.445Z,16.10
2022-09-09T19:28:17.104Z,16.00
2022-09-09T19:30:49.749Z,15.90
2022-09-09T19:33:21.419Z,15.80
2022-09-09T19:36:02.207Z,15.70
2022-09-09T19:38:35.460Z,15.60
2022-09-09T19:41:10.098Z,15.40
2022-09-09T19:43:42.090Z,15.30
2022-09-09T19:46:15.755Z,15.20
2022-09-09T19:48:47.760Z,15.10
2022-09-09T19:51:21.704Z,15.10
2022-09-09T19:53:57.698Z,15.00
2022-09-09T19:56:30.488Z,14.90
2022-09-09T19:59:02.938Z,14.90
2022-09-09T20:01:41.032Z,14.80
2022-09-09T20:04:14.490Z,14.80
2022-09-09T20:06:46.471Z,14.80
2022-09-09T20:09:19.501Z,14.80
2022-09-09T20:11:51.215Z,14.90
2022-09-09T20:14:22.884Z,14.90
2022-09-09T20:16:54.642Z,14.90
2022-09-09T20:19:26.292Z,15.00
2022-09-09T20:21:58.931Z,15.00
2022-09-09T20:24:30.585Z,15.00
2022-09-09T20:27:02.249Z,15.00
2022-09-09T20:29:33.972Z,14.90
2022-09-09T20:32:05.880Z,15.00
2022-09-09T20:34:37.882Z,14.90
2022-09-09T20:37:09.927Z,14.90
2022-09-09T20:39:41.659Z,14.90
2022-09-09T20:42:13.343Z,14.90
2022-09-09T20:44:45.024Z,14.90
2022-09-09T20:47:16.687Z,14.80
2022-09-09T20:49:48.347Z,14.80
2022-09-09T20:52:20.351Z,14.80
2022-09-09T20:54:53.723Z,14.80
2022-09-09T20:57:25.494Z,14.80
2022-09-09T20:59:57.188Z,14.70
2022-09-09T21:02:29.024Z,14.60
2022-09-09T21:05:01.552Z,14.60
2022-09-09T21:07:33.190Z,14.60
2022-09-09T21:10:05.362Z,14.50
2022-09-09T21:12:37.127Z,14.40
2022-09-09T21:15:09.090Z,14.40
2022-09-09T21:17:40.747Z,14.40
2022-09-09T21:20:12.413Z,14.30
2022-09-09T21:22:44.226Z,14.30
2022-09-09T21:25:15.973Z,14.30
2022-09-09T21:27:47.635Z,14.20
2022-09-09T21:30:19.338Z,14.20
2022-09-09T21:32:51.119Z,14.10
2022-09-09T21:35:22.863Z,14.00
2022-09-09T21:37:54.674Z,13.90
2022-09-09T21:40:26.494Z,13.90
2022-09-09T21:42:59.471Z,13.90
2022-09-09T21:45:34.395Z,13.90
2022-09-09T21:48:07.631Z,13.90
2022-09-09T21:50:40.078Z,13.90
2022-09-09T21:53:13.072Z,13.90
2022-09-09T21:55:47.659Z,13.90
2022-09-09T21:58:19.394Z,13.90
2022-09-09T22:00:51.077Z,13.90
2022-09-09T22:03:23.667Z,13.90
2022-09-09T22:05:55.334Z,13.90
2022-09-09T22:08:26.995Z,13.80
2022-09-09T22:11:07.539Z,13.80
2022-09-09T22:13:39.215Z,13.80
2022-09-09T22:16:13.723Z,13.80
2022-09-09T22:18:50.436Z,13.70
2022-09-09T22:21:22.734Z,13.70
2022-09-09T22:23:57.147Z,13.70
2022-09-09T22:26:31.702Z,13.60
2022-09-09T22:29:05.335Z,13.70
2022-09-09T22:31:37.048Z,13.70
2022-09-09T22:34:08.786Z,13.70
2022-09-09T22:36:40.855Z,13.80
2022-09-09T22:39:12.612Z,13.90
2022-09-09T22:41:44.896Z,13.90
2022-09-09T22:44:16.763Z,13.90
2022-09-09T22:46:48.765Z,13.90
2022-09-09T22:49:20.432Z,14.00
2022-09-09T22:51:52.443Z,14.00
2022-09-09T22:54:24.255Z,14.00
2022-09-09T22:56:55.953Z,14.10
2022-09-09T22:59:28.035Z,14.20
2022-09-09T23:01:59.908Z,14.30
2022-09-09T23:04:31.707Z,14.50
2022-09-09T23:07:03.439Z,14.60
2022-09-09T23:09:35.210Z,14.60
2022-09-09T23:12:09.500Z,14.60
2022-09-09T23:14:41.318Z,14.70
2022-09-09T23:17:16.025Z,14.60
2022-09-09T23:19:52.114Z,14.50
2022-09-09T23:22:24.438Z,14.40
2022-09-09T23:24:57.770Z,14.30
2022-09-09T23:27:29.901Z,14.30
2022-09-09T23:30:01.617Z,14.20
2022-09-09T23:32:33.930Z,14.20
2022-09-09T23:35:07.493Z,14.30
2022-09-09T23:37:39.199Z,14.30
2022-09-09T23:40:11.044Z,14.20
2022-09-09T23:42:42.772Z,14.10
2022-09-09T23:45:14.974Z,14.10
2022-09-09T23:47:46.807Z,14.10
2022-09-09T23:50:19.018Z,14.10
2022-09-09T23:52:51.382Z,14.00
2022-09-09T23:55:23.780Z,14.00
2022-09-09T23:57:56.396Z,13.90
